sensor_id;sensor_type;location;lat;lon;timestamp;P1;durP1;ratioP1;P2;durP2;ratioP2
11691;SDS011;33659;42.672;23.354;2023-01-04T00:00:22;10.07;;;6.73;;
11691;SDS011;33659;42.672;23.354;2023-01-04T00:02:49;9.57;;;5.90;;
11691;SDS011;33659;42.672;23.354;2023-01-04T00:05:17;8.47;;;6.50;;
11691;SDS011;33659;42.672;23.354;2023-01-04T00:07:44;9.80;;;6.63;;
11691;SDS011;33659;42.672;23.354;2023-01-04T00:10:10;9.90;;;6.87;;
11691;SDS011;33659;42.672;23.354;2023-01-04T00:12:37;9.40;;;6.40;;
11691;SDS011;33659;42.672;23.354;2023-01-04T00:15:04;10.47;;;6.30;;
11691;SDS011;33659;42.672;23.354;2023-01-04T00:17:32;9.00;;;6.07;;
11691;SDS011;33659;42.672;23.354;2023-01-04T00:19:58;10.07;;;7.10;;
11691;SDS011;33659;42.672;23.354;2023-01-04T00:22:27;7.70;;;5.87;;
11691;SDS011;33659;42.672;23.354;2023-01-04T00:24:54;8.63;;;6.57;;
11691;SDS011;33659;42.672;23.354;2023-01-04T00:27:20;10.27;;;6.57;;
11691;SDS011;33659;42.672;23.354;2023-01-04T00:29:47;8.03;;;5.97;;
11691;SDS011;33659;42.672;23.354;2023-01-04T00:32:13;7.50;;;5.17;;
11691;SDS011;33659;42.672;23.354;2023-01-04T00:34:40;10.77;;;6.00;;
11691;SDS011;33659;42.672;23.354;2023-01-04T00:37:07;8.83;;;6.30;;
11691;SDS011;33659;42.672;23.354;2023-01-04T00:39:35;9.63;;;6.20;;
11691;SDS011;33659;42.672;23.354;2023-01-04T00:42:01;13.67;;;6.37;;
11691;SDS011;33659;42.672;23.354;2023-01-04T00:44:30;6.97;;;5.47;;
11691;SDS011;33659;42.672;23.354;2023-01-04T00:47:00;8.10;;;5.47;;
11691;SDS011;33659;42.672;23.354;2023-01-04T00:49:28;8.23;;;6.23;;
11691;SDS011;33659;42.672;23.354;2023-01-04T00:51:56;13.13;;;5.50;;
11691;SDS011;33659;42.672;23.354;2023-01-04T00:54:23;10.13;;;6.03;;
11691;SDS011;33659;42.672;23.354;2023-01-04T00:56:51;9.73;;;6.07;;
11691;SDS011;33659;42.672;23.354;2023-01-04T00:59:18;7.13;;;5.43;;
11691;SDS011;33659;42.672;23.354;2023-01-04T01:01:46;7.23;;;5.97;;
11691;SDS011;33659;42.672;23.354;2023-01-04T01:04:13;9.50;;;6.30;;
11691;SDS011;33659;42.672;23.354;2023-01-04T01:06:41;8.33;;;6.37;;
11691;SDS011;33659;42.672;23.354;2023-01-04T01:09:08;8.03;;;6.10;;
11691;SDS011;33659;42.672;23.354;2023-01-04T01:11:35;8.50;;;6.17;;
11691;SDS011;33659;42.672;23.354;2023-01-04T01:14:05;8.27;;;6.90;;
11691;SDS011;33659;42.672;23.354;2023-01-04T01:16:32;9.83;;;5.87;;
11691;SDS011;33659;42.672;23.354;2023-01-04T01:18:59;6.57;;;5.20;;
11691;SDS011;33659;42.672;23.354;2023-01-04T01:21:26;8.77;;;6.80;;
11691;SDS011;33659;42.672;23.354;2023-01-04T01:23:53;8.37;;;6.07;;
11691;SDS011;33659;42.672;23.354;2023-01-04T01:26:21;9.07;;;6.80;;
11691;SDS011;33659;42.672;23.354;2023-01-04T01:28:49;8.87;;;6.00;;
11691;SDS011;33659;42.672;23.354;2023-01-04T01:31:18;10.87;;;6.70;;
11691;SDS011;33659;42.672;23.354;2023-01-04T01:33:47;10.07;;;7.23;;
11691;SDS011;33659;42.672;23.354;2023-01-04T01:36:15;10.87;;;6.27;;
11691;SDS011;33659;42.672;23.354;2023-01-04T01:38:44;9.07;;;6.40;;
11691;SDS011;33659;42.672;23.354;2023-01-04T01:41:14;7.13;;;6.00;;
11691;SDS011;33659;42.672;23.354;2023-01-04T01:43:45;8.97;;;6.67;;
11691;SDS011;33659;42.672;23.354;2023-01-04T01:46:15;8.87;;;6.40;;
11691;SDS011;33659;42.672;23.354;2023-01-04T01:48:48;9.47;;;6.37;;
11691;SDS011;33659;42.672;23.354;2023-01-04T01:51:16;9.73;;;7.00;;
11691;SDS011;33659;42.672;23.354;2023-01-04T01:53:45;10.67;;;6.53;;
11691;SDS011;33659;42.672;23.354;2023-01-04T01:56:15;11.30;;;7.43;;
11691;SDS011;33659;42.672;23.354;2023-01-04T01:58:44;13.70;;;6.90;;
11691;SDS011;33659;42.672;23.354;2023-01-04T02:01:16;9.13;;;6.63;;
11691;SDS011;33659;42.672;23.354;2023-01-04T02:03:45;11.43;;;7.50;;
11691;SDS011;33659;42.672;23.354;2023-01-04T02:06:12;11.47;;;6.70;;
11691;SDS011;33659;42.672;23.354;2023-01-04T02:08:43;12.87;;;7.93;;
11691;SDS011;33659;42.672;23.354;2023-01-04T02:11:10;11.33;;;6.33;;
11691;SDS011;33659;42.672;23.354;2023-01-04T02:13:37;9.50;;;7.20;;
11691;SDS011;33659;42.672;23.354;2023-01-04T02:16:26;13.00;;;7.67;;
11691;SDS011;33659;42.672;23.354;2023-01-04T02:19:09;8.97;;;6.87;;
11691;SDS011;33659;42.672;23.354;2023-01-04T02:21:56;13.80;;;7.13;;
11691;SDS011;33659;42.672;23.354;2023-01-04T02:24:51;12.03;;;7.47;;
11691;SDS011;33659;42.672;23.354;2023-01-04T02:27:39;14.43;;;7.60;;
11691;SDS011;33659;42.672;23.354;2023-01-04T02:33:16;10.97;;;6.97;;
11691;SDS011;33659;42.672;23.354;2023-01-04T02:35:54;11.33;;;7.03;;
11691;SDS011;33659;42.672;23.354;2023-01-04T02:38:27;9.77;;;6.70;;
11691;SDS011;33659;42.672;23.354;2023-01-04T02:41:02;12.30;;;7.33;;
11691;SDS011;33659;42.672;23.354;2023-01-04T02:43:34;12.20;;;7.27;;
11691;SDS011;33659;42.672;23.354;2023-01-04T02:46:24;9.23;;;6.93;;
11691;SDS011;33659;42.672;23.354;2023-01-04T02:48:57;9.40;;;6.90;;
11691;SDS011;33659;42.672;23.354;2023-01-04T02:51:41;13.73;;;7.77;;
11691;SDS011;33659;42.672;23.354;2023-01-04T02:54:09;11.03;;;7.40;;
11691;SDS011;33659;42.672;23.354;2023-01-04T03:02:47;9.93;;;8.03;;
11691;SDS011;33659;42.672;23.354;2023-01-04T03:05:45;14.07;;;9.27;;
11691;SDS011;33659;42.672;23.354;2023-01-04T03:08:39;14.17;;;8.63;;
11691;SDS011;33659;42.672;23.354;2023-01-04T03:11:13;14.57;;;8.87;;
11691;SDS011;33659;42.672;23.354;2023-01-04T03:13:56;10.80;;;8.00;;
11691;SDS011;33659;42.672;23.354;2023-01-04T03:16:27;10.83;;;7.37;;
11691;SDS011;33659;42.672;23.354;2023-01-04T03:18:56;9.60;;;7.47;;
11691;SDS011;33659;42.672;23.354;2023-01-04T03:21:29;11.17;;;7.97;;
11691;SDS011;33659;42.672;23.354;2023-01-04T03:23:58;13.17;;;8.73;;
11691;SDS011;33659;42.672;23.354;2023-01-04T03:26:54;11.20;;;7.77;;
11691;SDS011;33659;42.672;23.354;2023-01-04T03:29:48;10.37;;;7.63;;
11691;SDS011;33659;42.672;23.354;2023-01-04T03:32:39;10.77;;;7.43;;
11691;SDS011;33659;42.672;23.354;2023-01-04T03:35:30;13.83;;;8.37;;
11691;SDS011;33659;42.672;23.354;2023-01-04T03:38:06;13.50;;;8.57;;
11691;SDS011;33659;42.672;23.354;2023-01-04T03:40:54;11.40;;;8.73;;
11691;SDS011;33659;42.672;23.354;2023-01-04T03:43:44;16.17;;;8.27;;
11691;SDS011;33659;42.672;23.354;2023-01-04T03:46:34;14.10;;;8.00;;
11691;SDS011;33659;42.672;23.354;2023-01-04T03:49:23;14.20;;;9.47;;
11691;SDS011;33659;42.672;23.354;2023-01-04T03:51:55;10.87;;;7.87;;
11691;SDS011;33659;42.672;23.354;2023-01-04T03:54:26;10.47;;;7.77;;
11691;SDS011;33659;42.672;23.354;2023-01-04T03:56:57;11.60;;;7.60;;
11691;SDS011;33659;42.672;23.354;2023-01-04T03:59:25;11.00;;;7.00;;
11691;SDS011;33659;42.672;23.354;2023-01-04T04:01:52;13.27;;;8.07;;
11691;SDS011;33659;42.672;23.354;2023-01-04T04:04:19;16.47;;;7.40;;
11691;SDS011;33659;42.672;23.354;2023-01-04T04:07:03;12.60;;;7.37;;
11691;SDS011;33659;42.672;23.354;2023-01-04T04:09:49;12.37;;;7.30;;
11691;SDS011;33659;42.672;23.354;2023-01-04T04:12:15;16.40;;;7.77;;
11691;SDS011;33659;42.672;23.354;2023-01-04T04:14:42;13.37;;;7.73;;
11691;SDS011;33659;42.672;23.354;2023-01-04T04:17:08;11.23;;;8.10;;
11691;SDS011;33659;42.672;23.354;2023-01-04T04:19:35;10.80;;;8.10;;
11691;SDS011;33659;42.672;23.354;2023-01-04T04:22:02;10.83;;;7.80;;
11691;SDS011;33659;42.672;23.354;2023-01-04T04:24:28;11.57;;;7.77;;
11691;SDS011;33659;42.672;23.354;2023-01-04T04:26:56;10.97;;;8.20;;
11691;SDS011;33659;42.672;23.354;2023-01-04T04:29:23;11.23;;;7.93;;
11691;SDS011;33659;42.672;23.354;2023-01-04T04:31:50;13.33;;;7.97;;
11691;SDS011;33659;42.672;23.354;2023-01-04T04:34:17;13.90;;;8.10;;
11691;SDS011;33659;42.672;23.354;2023-01-04T04:36:44;12.60;;;7.97;;
11691;SDS011;33659;42.672;23.354;2023-01-04T04:39:10;13.13;;;8.17;;
11691;SDS011;33659;42.672;23.354;2023-01-04T04:41:37;10.40;;;8.10;;
11691;SDS011;33659;42.672;23.354;2023-01-04T04:44:05;9.30;;;7.10;;
11691;SDS011;33659;42.672;23.354;2023-01-04T04:46:32;12.93;;;8.40;;
11691;SDS011;33659;42.672;23.354;2023-01-04T04:48:59;12.40;;;8.07;;
11691;SDS011;33659;42.672;23.354;2023-01-04T04:51:25;11.53;;;8.63;;
11691;SDS011;33659;42.672;23.354;2023-01-04T04:53:52;9.30;;;7.67;;
11691;SDS011;33659;42.672;23.354;2023-01-04T04:56:19;10.83;;;8.37;;
11691;SDS011;33659;42.672;23.354;2023-01-04T04:58:46;9.97;;;7.97;;
11691;SDS011;33659;42.672;23.354;2023-01-04T05:01:14;11.03;;;8.13;;
11691;SDS011;33659;42.672;23.354;2023-01-04T05:03:41;13.53;;;8.60;;
11691;SDS011;33659;42.672;23.354;2023-01-04T05:06:07;16.37;;;8.67;;
11691;SDS011;33659;42.672;23.354;2023-01-04T05:08:34;13.37;;;8.60;;
11691;SDS011;33659;42.672;23.354;2023-01-04T05:11:03;11.97;;;8.43;;
11691;SDS011;33659;42.672;23.354;2023-01-04T05:13:30;11.73;;;8.43;;
11691;SDS011;33659;42.672;23.354;2023-01-04T05:15:56;15.47;;;9.03;;
11691;SDS011;33659;42.672;23.354;2023-01-04T05:18:24;14.87;;;8.67;;
11691;SDS011;33659;42.672;23.354;2023-01-04T05:20:51;10.87;;;7.23;;
11691;SDS011;33659;42.672;23.354;2023-01-04T05:23:18;9.27;;;7.33;;
11691;SDS011;33659;42.672;23.354;2023-01-04T05:25:47;12.97;;;8.20;;
11691;SDS011;33659;42.672;23.354;2023-01-04T05:28:17;12.70;;;7.53;;
11691;SDS011;33659;42.672;23.354;2023-01-04T05:30:44;12.20;;;8.70;;
11691;SDS011;33659;42.672;23.354;2023-01-04T05:33:15;13.60;;;9.37;;
11691;SDS011;33659;42.672;23.354;2023-01-04T05:35:44;14.30;;;8.27;;
11691;SDS011;33659;42.672;23.354;2023-01-04T05:38:11;13.30;;;8.73;;
11691;SDS011;33659;42.672;23.354;2023-01-04T05:40:38;14.77;;;9.17;;
11691;SDS011;33659;42.672;23.354;2023-01-04T05:43:04;15.23;;;8.73;;
11691;SDS011;33659;42.672;23.354;2023-01-04T05:45:31;13.63;;;9.80;;
11691;SDS011;33659;42.672;23.354;2023-01-04T05:47:58;11.33;;;8.73;;
11691;SDS011;33659;42.672;23.354;2023-01-04T05:50:25;14.57;;;9.10;;
11691;SDS011;33659;42.672;23.354;2023-01-04T05:52:53;12.30;;;8.20;;
11691;SDS011;33659;42.672;23.354;2023-01-04T05:55:19;14.47;;;8.43;;
11691;SDS011;33659;42.672;23.354;2023-01-04T05:57:46;12.20;;;8.50;;
11691;SDS011;33659;42.672;23.354;2023-01-04T06:00:13;14.63;;;9.70;;
11691;SDS011;33659;42.672;23.354;2023-01-04T06:02:40;10.57;;;8.70;;
11691;SDS011;33659;42.672;23.354;2023-01-04T06:05:08;11.60;;;8.00;;
11691;SDS011;33659;42.672;23.354;2023-01-04T06:07:35;14.03;;;9.70;;
11691;SDS011;33659;42.672;23.354;2023-01-04T06:10:04;12.07;;;8.40;;
11691;SDS011;33659;42.672;23.354;2023-01-04T06:12:32;14.20;;;8.60;;
11691;SDS011;33659;42.672;23.354;2023-01-04T06:14:59;15.20;;;9.37;;
11691;SDS011;33659;42.672;23.354;2023-01-04T06:17:26;12.50;;;8.07;;
11691;SDS011;33659;42.672;23.354;2023-01-04T06:19:53;13.43;;;9.00;;
11691;SDS011;33659;42.672;23.354;2023-01-04T06:22:19;11.17;;;8.23;;
11691;SDS011;33659;42.672;23.354;2023-01-04T06:24:46;14.07;;;8.50;;
11691;SDS011;33659;42.672;23.354;2023-01-04T06:27:14;14.57;;;8.83;;
11691;SDS011;33659;42.672;23.354;2023-01-04T06:29:41;17.73;;;8.40;;
11691;SDS011;33659;42.672;23.354;2023-01-04T06:32:07;11.40;;;7.73;;
11691;SDS011;33659;42.672;23.354;2023-01-04T06:34:34;10.73;;;7.53;;
11691;SDS011;33659;42.672;23.354;2023-01-04T06:37:01;15.83;;;8.77;;
11691;SDS011;33659;42.672;23.354;2023-01-04T06:39:28;11.10;;;8.40;;
11691;SDS011;33659;42.672;23.354;2023-01-04T06:41:54;12.67;;;8.40;;
11691;SDS011;33659;42.672;23.354;2023-01-04T06:44:22;11.53;;;8.17;;
11691;SDS011;33659;42.672;23.354;2023-01-04T06:46:49;11.67;;;7.83;;
11691;SDS011;33659;42.672;23.354;2023-01-04T06:49:16;12.47;;;8.30;;
11691;SDS011;33659;42.672;23.354;2023-01-04T06:51:42;14.20;;;8.33;;
11691;SDS011;33659;42.672;23.354;2023-01-04T06:54:09;12.40;;;7.73;;
11691;SDS011;33659;42.672;23.354;2023-01-04T06:56:36;9.73;;;7.37;;
11691;SDS011;33659;42.672;23.354;2023-01-04T06:59:03;10.53;;;8.20;;
11691;SDS011;33659;42.672;23.354;2023-01-04T07:01:31;10.77;;;8.00;;
11691;SDS011;33659;42.672;23.354;2023-01-04T07:03:58;12.77;;;8.90;;
11691;SDS011;33659;42.672;23.354;2023-01-04T07:06:25;11.43;;;8.37;;
11691;SDS011;33659;42.672;23.354;2023-01-04T07:08:52;13.43;;;8.37;;
11691;SDS011;33659;42.672;23.354;2023-01-04T07:11:20;14.50;;;7.43;;
11691;SDS011;33659;42.672;23.354;2023-01-04T07:13:46;16.97;;;8.23;;
11691;SDS011;33659;42.672;23.354;2023-01-04T07:16:13;15.00;;;8.83;;
11691;SDS011;33659;42.672;23.354;2023-01-04T07:18:41;12.40;;;8.47;;
11691;SDS011;33659;42.672;23.354;2023-01-04T07:21:07;11.03;;;8.10;;
11691;SDS011;33659;42.672;23.354;2023-01-04T07:23:34;12.10;;;8.63;;
11691;SDS011;33659;42.672;23.354;2023-01-04T07:26:01;12.90;;;7.97;;
11691;SDS011;33659;42.672;23.354;2023-01-04T07:28:28;9.90;;;7.77;;
11691;SDS011;33659;42.672;23.354;2023-01-04T07:31:12;13.00;;;8.10;;
11691;SDS011;33659;42.672;23.354;2023-01-04T07:33:38;11.13;;;7.90;;
11691;SDS011;33659;42.672;23.354;2023-01-04T07:36:07;10.53;;;7.00;;
11691;SDS011;33659;42.672;23.354;2023-01-04T07:38:34;11.10;;;7.73;;
11691;SDS011;33659;42.672;23.354;2023-01-04T07:41:01;13.63;;;8.07;;
11691;SDS011;33659;42.672;23.354;2023-01-04T07:43:28;12.53;;;8.23;;
11691;SDS011;33659;42.672;23.354;2023-01-04T07:45:55;13.47;;;8.47;;
11691;SDS011;33659;42.672;23.354;2023-01-04T07:48:22;14.40;;;7.93;;
11691;SDS011;33659;42.672;23.354;2023-01-04T07:50:50;12.43;;;8.00;;
11691;SDS011;33659;42.672;23.354;2023-01-04T07:53:16;13.13;;;8.57;;
11691;SDS011;33659;42.672;23.354;2023-01-04T07:55:43;12.87;;;8.10;;
11691;SDS011;33659;42.672;23.354;2023-01-04T07:58:10;12.20;;;7.73;;
11691;SDS011;33659;42.672;23.354;2023-01-04T08:00:37;11.13;;;7.70;;
11691;SDS011;33659;42.672;23.354;2023-01-04T08:03:03;14.33;;;8.90;;
11691;SDS011;33659;42.672;23.354;2023-01-04T08:05:31;11.43;;;8.10;;
11691;SDS011;33659;42.672;23.354;2023-01-04T08:07:59;13.10;;;8.33;;
11691;SDS011;33659;42.672;23.354;2023-01-04T08:10:26;10.30;;;8.00;;
11691;SDS011;33659;42.672;23.354;2023-01-04T08:12:53;12.60;;;8.47;;
11691;SDS011;33659;42.672;23.354;2023-01-04T08:15:19;12.97;;;8.50;;
11691;SDS011;33659;42.672;23.354;2023-01-04T08:17:46;16.17;;;9.23;;
11691;SDS011;33659;42.672;23.354;2023-01-04T08:20:13;12.63;;;8.13;;
11691;SDS011;33659;42.672;23.354;2023-01-04T08:22:39;15.63;;;8.87;;
11691;SDS011;33659;42.672;23.354;2023-01-04T08:25:08;15.03;;;8.80;;
11691;SDS011;33659;42.672;23.354;2023-01-04T08:27:35;14.37;;;8.33;;
11691;SDS011;33659;42.672;23.354;2023-01-04T08:30:01;12.07;;;7.97;;
11691;SDS011;33659;42.672;23.354;2023-01-04T08:32:29;13.40;;;8.50;;
11691;SDS011;33659;42.672;23.354;2023-01-04T08:34:55;13.13;;;8.03;;
11691;SDS011;33659;42.672;23.354;2023-01-04T08:37:22;11.03;;;8.00;;
11691;SDS011;33659;42.672;23.354;2023-01-04T08:39:49;12.20;;;8.53;;
11691;SDS011;33659;42.672;23.354;2023-01-04T08:42:17;11.17;;;7.97;;
11691;SDS011;33659;42.672;23.354;2023-01-04T08:44:43;11.20;;;7.73;;
11691;SDS011;33659;42.672;23.354;2023-01-04T08:47:10;11.87;;;8.10;;
11691;SDS011;33659;42.672;23.354;2023-01-04T08:49:37;14.90;;;8.10;;
11691;SDS011;33659;42.672;23.354;2023-01-04T08:52:03;15.60;;;8.13;;
11691;SDS011;33659;42.672;23.354;2023-01-04T08:54:31;11.63;;;7.47;;
11691;SDS011;33659;42.672;23.354;2023-01-04T08:56:58;15.43;;;8.77;;
11691;SDS011;33659;42.672;23.354;2023-01-04T08:59:26;13.93;;;8.43;;
11691;SDS011;33659;42.672;23.354;2023-01-04T09:01:52;13.27;;;9.50;;
11691;SDS011;33659;42.672;23.354;2023-01-04T09:04:19;12.73;;;8.43;;
11691;SDS011;33659;42.672;23.354;2023-01-04T09:06:46;13.00;;;8.33;;
11691;SDS011;33659;42.672;23.354;2023-01-04T09:09:13;14.60;;;8.83;;
11691;SDS011;33659;42.672;23.354;2023-01-04T09:11:40;11.87;;;8.53;;
11691;SDS011;33659;42.672;23.354;2023-01-04T09:14:06;11.23;;;8.87;;
11691;SDS011;33659;42.672;23.354;2023-01-04T09:16:36;12.40;;;8.67;;
11691;SDS011;33659;42.672;23.354;2023-01-04T09:19:03;13.43;;;8.70;;
11691;SDS011;33659;42.672;23.354;2023-01-04T09:21:30;12.87;;;8.57;;
11691;SDS011;33659;42.672;23.354;2023-01-04T09:23:57;10.37;;;8.00;;
11691;SDS011;33659;42.672;23.354;2023-01-04T09:26:23;16.00;;;9.03;;
11691;SDS011;33659;42.672;23.354;2023-01-04T09:28:51;12.63;;;8.63;;
11691;SDS011;33659;42.672;23.354;2023-01-04T09:31:19;13.30;;;8.30;;
11691;SDS011;33659;42.672;23.354;2023-01-04T09:33:49;10.23;;;7.90;;
11691;SDS011;33659;42.672;23.354;2023-01-04T09:36:16;10.80;;;7.70;;
11691;SDS011;33659;42.672;23.354;2023-01-04T09:38:43;11.77;;;7.70;;
11691;SDS011;33659;42.672;23.354;2023-01-04T09:41:14;10.93;;;8.20;;
11691;SDS011;33659;42.672;23.354;2023-01-04T09:43:45;10.63;;;7.73;;
11691;SDS011;33659;42.672;23.354;2023-01-04T09:46:17;11.63;;;8.80;;
11691;SDS011;33659;42.672;23.354;2023-01-04T09:48:53;9.30;;;7.23;;
11691;SDS011;33659;42.672;23.354;2023-01-04T09:51:30;9.60;;;6.93;;
11691;SDS011;33659;42.672;23.354;2023-01-04T09:54:01;10.40;;;6.87;;
11691;SDS011;33659;42.672;23.354;2023-01-04T09:56:33;9.27;;;6.93;;
11691;SDS011;33659;42.672;23.354;2023-01-04T09:59:02;12.90;;;7.40;;
11691;SDS011;33659;42.672;23.354;2023-01-04T10:01:40;11.37;;;7.07;;
11691;SDS011;33659;42.672;23.354;2023-01-04T10:04:14;12.50;;;7.47;;
11691;SDS011;33659;42.672;23.354;2023-01-04T10:06:44;11.00;;;7.03;;
11691;SDS011;33659;42.672;23.354;2023-01-04T10:09:12;10.63;;;8.17;;
11691;SDS011;33659;42.672;23.354;2023-01-04T10:14:40;10.40;;;7.30;;
11691;SDS011;33659;42.672;23.354;2023-01-04T10:17:20;10.70;;;6.67;;
11691;SDS011;33659;42.672;23.354;2023-01-04T10:20:00;13.87;;;7.00;;
11691;SDS011;33659;42.672;23.354;2023-01-04T10:22:35;13.00;;;7.20;;
11691;SDS011;33659;42.672;23.354;2023-01-04T10:25:21;11.03;;;7.47;;
11691;SDS011;33659;42.672;23.354;2023-01-04T10:27:56;9.57;;;7.03;;
11691;SDS011;33659;42.672;23.354;2023-01-04T10:30:38;11.47;;;7.43;;
11691;SDS011;33659;42.672;23.354;2023-01-04T10:33:12;12.33;;;7.40;;
11691;SDS011;33659;42.672;23.354;2023-01-04T10:35:42;9.13;;;6.87;;
11691;SDS011;33659;42.672;23.354;2023-01-04T10:38:12;13.93;;;8.70;;
11691;SDS011;33659;42.672;23.354;2023-01-04T10:40:42;9.43;;;7.40;;
11691;SDS011;33659;42.672;23.354;2023-01-04T10:43:13;11.23;;;7.43;;
11691;SDS011;33659;42.672;23.354;2023-01-04T10:45:49;12.17;;;7.03;;
11691;SDS011;33659;42.672;23.354;2023-01-04T10:48:23;10.77;;;7.43;;
11691;SDS011;33659;42.672;23.354;2023-01-04T10:50:58;9.83;;;7.67;;
11691;SDS011;33659;42.672;23.354;2023-01-04T10:53:26;10.70;;;6.90;;
11691;SDS011;33659;42.672;23.354;2023-01-04T10:55:58;9.67;;;7.07;;
11691;SDS011;33659;42.672;23.354;2023-01-04T10:58:30;12.60;;;7.53;;
11691;SDS011;33659;42.672;23.354;2023-01-04T11:01:03;11.17;;;6.17;;
11691;SDS011;33659;42.672;23.354;2023-01-04T11:03:34;9.53;;;6.60;;
11691;SDS011;33659;42.672;23.354;2023-01-04T11:06:09;8.77;;;6.60;;
11691;SDS011;33659;42.672;23.354;2023-01-04T11:08:42;11.27;;;7.33;;
11691;SDS011;33659;42.672;23.354;2023-01-04T11:11:16;9.67;;;7.20;;
11691;SDS011;33659;42.672;23.354;2023-01-04T11:13:48;11.13;;;7.93;;
11691;SDS011;33659;42.672;23.354;2023-01-04T11:16:15;10.07;;;8.00;;
11691;SDS011;33659;42.672;23.354;2023-01-04T11:18:42;10.93;;;7.17;;
11691;SDS011;33659;42.672;23.354;2023-01-04T11:21:13;11.50;;;7.40;;
11691;SDS011;33659;42.672;23.354;2023-01-04T11:23:44;8.67;;;7.03;;
11691;SDS011;33659;42.672;23.354;2023-01-04T11:26:11;10.07;;;6.67;;
11691;SDS011;33659;42.672;23.354;2023-01-04T11:28:42;9.17;;;6.93;;
11691;SDS011;33659;42.672;23.354;2023-01-04T11:31:15;8.73;;;6.27;;
11691;SDS011;33659;42.672;23.354;2023-01-04T11:33:50;11.20;;;7.27;;
11691;SDS011;33659;42.672;23.354;2023-01-04T11:36:32;10.20;;;7.23;;
11691;SDS011;33659;42.672;23.354;2023-01-04T11:39:03;8.83;;;6.80;;
11691;SDS011;33659;42.672;23.354;2023-01-04T11:41:30;11.50;;;6.67;;
11691;SDS011;33659;42.672;23.354;2023-01-04T11:43:57;11.17;;;7.27;;
11691;SDS011;33659;42.672;23.354;2023-01-04T11:46:26;10.83;;;7.10;;
11691;SDS011;33659;42.672;23.354;2023-01-04T11:48:54;10.10;;;6.40;;
11691;SDS011;33659;42.672;23.354;2023-01-04T11:51:35;10.50;;;7.50;;
11691;SDS011;33659;42.672;23.354;2023-01-04T11:54:05;9.70;;;6.77;;
11691;SDS011;33659;42.672;23.354;2023-01-04T11:56:57;10.27;;;6.63;;
11691;SDS011;33659;42.672;23.354;2023-01-04T11:59:25;10.97;;;6.83;;
11691;SDS011;33659;42.672;23.354;2023-01-04T12:02:09;10.37;;;6.07;;
11691;SDS011;33659;42.672;23.354;2023-01-04T12:04:43;10.00;;;6.60;;
11691;SDS011;33659;42.672;23.354;2023-01-04T12:07:13;8.40;;;6.93;;
11691;SDS011;33659;42.672;23.354;2023-01-04T12:09:52;7.67;;;6.03;;
11691;SDS011;33659;42.672;23.354;2023-01-04T12:12:18;9.85;;;5.85;;
11691;SDS011;33659;42.672;23.354;2023-01-04T12:14:54;9.07;;;6.38;;
11691;SDS011;33659;42.672;23.354;2023-01-04T12:17:22;11.90;;;6.45;;
11691;SDS011;33659;42.672;23.354;2023-01-04T12:19:55;9.30;;;6.22;;
11691;SDS011;33659;42.672;23.354;2023-01-04T12:22:28;9.50;;;6.72;;
11691;SDS011;33659;42.672;23.354;2023-01-04T12:24:59;10.25;;;7.03;;
11691;SDS011;33659;42.672;23.354;2023-01-04T12:27:27;9.80;;;6.28;;
11691;SDS011;33659;42.672;23.354;2023-01-04T12:29:55;11.05;;;6.57;;
11691;SDS011;33659;42.672;23.354;2023-01-04T12:32:37;7.93;;;5.77;;
11691;SDS011;33659;42.672;23.354;2023-01-04T12:38:08;7.97;;;6.20;;
11691;SDS011;33659;42.672;23.354;2023-01-04T12:43:21;10.83;;;7.00;;
11691;SDS011;33659;42.672;23.354;2023-01-04T12:46:31;10.93;;;7.70;;
11691;SDS011;33659;42.672;23.354;2023-01-04T12:55:23;10.23;;;6.50;;
11691;SDS011;33659;42.672;23.354;2023-01-04T12:58:40;19.73;;;6.63;;
11691;SDS011;33659;42.672;23.354;2023-01-04T13:01:29;13.40;;;7.20;;
11691;SDS011;33659;42.672;23.354;2023-01-04T13:03:56;12.17;;;6.90;;
11691;SDS011;33659;42.672;23.354;2023-01-04T13:06:25;9.43;;;6.40;;
11691;SDS011;33659;42.672;23.354;2023-01-04T13:08:54;10.17;;;6.80;;
11691;SDS011;33659;42.672;23.354;2023-01-04T13:11:44;10.67;;;7.33;;
11691;SDS011;33659;42.672;23.354;2023-01-04T13:14:25;8.37;;;6.50;;
11691;SDS011;33659;42.672;23.354;2023-01-04T13:17:12;9.60;;;7.00;;
11691;SDS011;33659;42.672;23.354;2023-01-04T13:19:41;11.60;;;7.23;;
11691;SDS011;33659;42.672;23.354;2023-01-04T13:22:09;11.00;;;7.40;;
11691;SDS011;33659;42.672;23.354;2023-01-04T13:24:42;10.77;;;7.00;;
11691;SDS011;33659;42.672;23.354;2023-01-04T13:27:13;11.23;;;7.77;;
11691;SDS011;33659;42.672;23.354;2023-01-04T13:29:41;9.67;;;7.10;;
11691;SDS011;33659;42.672;23.354;2023-01-04T13:32:09;11.60;;;8.03;;
11691;SDS011;33659;42.672;23.354;2023-01-04T13:34:41;12.90;;;7.77;;
11691;SDS011;33659;42.672;23.354;2023-01-04T13:37:15;11.57;;;8.40;;
11691;SDS011;33659;42.672;23.354;2023-01-04T13:39:49;17.07;;;7.47;;
11691;SDS011;33659;42.672;23.354;2023-01-04T13:42:21;11.57;;;7.50;;
11691;SDS011;33659;42.672;23.354;2023-01-04T13:44:58;10.17;;;7.17;;
11691;SDS011;33659;42.672;23.354;2023-01-04T13:47:51;9.57;;;6.47;;
11691;SDS011;33659;42.672;23.354;2023-01-04T13:50:29;11.07;;;7.43;;
11691;SDS011;33659;42.672;23.354;2023-01-04T13:52:58;12.10;;;7.90;;
11691;SDS011;33659;42.672;23.354;2023-01-04T13:55:26;11.17;;;7.13;;
11691;SDS011;33659;42.672;23.354;2023-01-04T13:57:55;12.60;;;7.30;;
11691;SDS011;33659;42.672;23.354;2023-01-04T14:00:22;11.73;;;7.57;;
11691;SDS011;33659;42.672;23.354;2023-01-04T14:03:03;11.10;;;6.83;;
11691;SDS011;33659;42.672;23.354;2023-01-04T14:05:39;10.17;;;7.13;;
11691;SDS011;33659;42.672;23.354;2023-01-04T14:08:11;10.73;;;7.17;;
11691;SDS011;33659;42.672;23.354;2023-01-04T14:10:43;13.53;;;7.67;;
11691;SDS011;33659;42.672;23.354;2023-01-04T14:13:12;11.97;;;7.47;;
11691;SDS011;33659;42.672;23.354;2023-01-04T14:15:41;10.40;;;7.07;;
11691;SDS011;33659;42.672;23.354;2023-01-04T14:18:16;11.60;;;6.97;;
11691;SDS011;33659;42.672;23.354;2023-01-04T14:20:51;9.93;;;7.30;;
11691;SDS011;33659;42.672;23.354;2023-01-04T14:23:24;10.30;;;6.90;;
11691;SDS011;33659;42.672;23.354;2023-01-04T14:25:52;10.20;;;6.80;;
11691;SDS011;33659;42.672;23.354;2023-01-04T14:28:29;12.27;;;7.63;;
11691;SDS011;33659;42.672;23.354;2023-01-04T14:31:17;11.90;;;7.50;;
11691;SDS011;33659;42.672;23.354;2023-01-04T14:34:02;10.13;;;6.73;;
11691;SDS011;33659;42.672;23.354;2023-01-04T14:36:31;10.37;;;6.73;;
11691;SDS011;33659;42.672;23.354;2023-01-04T14:39:17;11.27;;;7.63;;
11691;SDS011;33659;42.672;23.354;2023-01-04T14:41:51;11.53;;;7.20;;
11691;SDS011;33659;42.672;23.354;2023-01-04T14:44:21;11.80;;;7.83;;
11691;SDS011;33659;42.672;23.354;2023-01-04T14:46:53;11.87;;;7.67;;
11691;SDS011;33659;42.672;23.354;2023-01-04T14:49:22;14.30;;;7.80;;
11691;SDS011;33659;42.672;23.354;2023-01-04T14:51:51;11.83;;;7.80;;
11691;SDS011;33659;42.672;23.354;2023-01-04T14:54:20;11.40;;;7.67;;
11691;SDS011;33659;42.672;23.354;2023-01-04T14:56:48;11.20;;;7.37;;
11691;SDS011;33659;42.672;23.354;2023-01-04T14:59:15;13.03;;;7.53;;
11691;SDS011;33659;42.672;23.354;2023-01-04T15:01:41;15.90;;;7.70;;
11691;SDS011;33659;42.672;23.354;2023-01-04T15:04:08;14.13;;;8.40;;
11691;SDS011;33659;42.672;23.354;2023-01-04T15:06:36;18.20;;;8.43;;
11691;SDS011;33659;42.672;23.354;2023-01-04T15:09:12;16.33;;;9.50;;